sensor_id;sensor_type;location;lat;lon;timestamp;pressure;altitude;pressure_sealevel;temperature;humidity
57114;BME280;42994;51.606;9.988;2022-07-29T00:00:04;99159.75;;;16.59;76.43
57114;BME280;42994;51.606;9.988;2022-07-29T00:02:31;99166.47;;;16.56;76.95
57114;BME280;42994;51.606;9.988;2022-07-29T00:04:57;99160.22;;;16.56;76.88
57114;BME280;42994;51.606;9.988;2022-07-29T00:07:24;99150.88;;;16.51;78.07
57114;BME280;42994;51.606;9.988;2022-07-29T00:09:51;99156.31;;;16.51;77.97
57114;BME280;42994;51.606;9.988;2022-07-29T00:12:20;99154.88;;;16.49;78.35
57114;BME280;42994;51.606;9.988;2022-07-29T00:14:47;99139.56;;;16.43;79.07
57114;BME280;42994;51.606;9.988;2022-07-29T00:17:14;99140.47;;;16.37;79.47
57114;BME280;42994;51.606;9.988;2022-07-29T00:19:41;99144.31;;;16.29;80.77
57114;BME280;42994;51.606;9.988;2022-07-29T00:22:07;99138.66;;;16.12;83.95
57114;BME280;42994;51.606;9.988;2022-07-29T00:24:34;99134.13;;;16.06;85.11
57114;BME280;42994;51.606;9.988;2022-07-29T00:27:01;99130.09;;;15.97;83.92
57114;BME280;42994;51.606;9.988;2022-07-29T00:29:29;99127.69;;;15.88;87.18
57114;BME280;42994;51.606;9.988;2022-07-29T00:31:56;99114.66;;;15.79;87.07
57114;BME280;42994;51.606;9.988;2022-07-29T00:34:22;99119.94;;;15.67;88.62
57114;BME280;42994;51.606;9.988;2022-07-29T00:37:07;99106.84;;;15.45;92.06
57114;BME280;42994;51.606;9.988;2022-07-29T00:39:33;99110.44;;;15.39;92.49
57114;BME280;42994;51.606;9.988;2022-07-29T00:42:02;99108.81;;;15.31;93.92
57114;BME280;42994;51.606;9.988;2022-07-29T00:44:30;99106.19;;;15.25;95.34
57114;BME280;42994;51.606;9.988;2022-07-29T00:46:57;99108.50;;;15.21;94.85
57114;BME280;42994;51.606;9.988;2022-07-29T00:49:24;99118.41;;;15.27;94.21
57114;BME280;42994;51.606;9.988;2022-07-29T00:51:51;99379.75;;;15.18;95.69
57114;BME280;42994;51.606;9.988;2022-07-29T00:54:17;99178.13;;;15.12;94.89
57114;BME280;42994;51.606;9.988;2022-07-29T00:56:44;99144.34;;;15.03;95.75
57114;BME280;42994;51.606;9.988;2022-07-29T00:59:11;99140.44;;;14.99;94.95
57114;BME280;42994;51.606;9.988;2022-07-29T01:01:39;99143.50;;;15.03;95.23
57114;BME280;42994;51.606;9.988;2022-07-29T01:04:06;99135.44;;;14.96;97.35
57114;BME280;42994;51.606;9.988;2022-07-29T01:06:33;99134.84;;;14.94;96.62
57114;BME280;42994;51.606;9.988;2022-07-29T01:09:01;99139.16;;;15.02;94.87
57114;BME280;42994;51.606;9.988;2022-07-29T01:11:28;99135.28;;;14.91;96.56
57114;BME280;42994;51.606;9.988;2022-07-29T01:13:56;99136.88;;;14.98;96.81
57114;BME280;42994;51.606;9.988;2022-07-29T01:16:28;99132.94;;;15.01;94.88
57114;BME280;42994;51.606;9.988;2022-07-29T01:19:04;99136.41;;;15.08;95.69
57114;BME280;42994;51.606;9.988;2022-07-29T01:21:46;99142.41;;;15.10;95.56
57114;BME280;42994;51.606;9.988;2022-07-29T01:24:40;99122.03;;;15.14;95.96
57114;BME280;42994;51.606;9.988;2022-07-29T01:27:28;99128.72;;;15.12;95.99
57114;BME280;42994;51.606;9.988;2022-07-29T01:30:02;99112.22;;;14.95;97.91
57114;BME280;42994;51.606;9.988;2022-07-29T01:32:32;99117.97;;;14.98;98.44
57114;BME280;42994;51.606;9.988;2022-07-29T01:35:03;99111.81;;;14.91;97.90
57114;BME280;42994;51.606;9.988;2022-07-29T01:37:37;99113.03;;;14.95;98.00
57114;BME280;42994;51.606;9.988;2022-07-29T01:40:11;99113.03;;;14.95;97.92
57114;BME280;42994;51.606;9.988;2022-07-29T01:42:42;99100.16;;;14.97;99.62
57114;BME280;42994;51.606;9.988;2022-07-29T01:45:14;99111.97;;;14.96;99.12
57114;BME280;42994;51.606;9.988;2022-07-29T01:47:44;99102.31;;;14.82;100.00
57114;BME280;42994;51.606;9.988;2022-07-29T01:50:16;99097.38;;;14.79;100.00
57114;BME280;42994;51.606;9.988;2022-07-29T01:52:47;99100.63;;;14.88;100.00
57114;BME280;42994;51.606;9.988;2022-07-29T01:55:17;99100.78;;;14.93;98.59
57114;BME280;42994;51.606;9.988;2022-07-29T01:57:49;99094.56;;;14.92;100.00
57114;BME280;42994;51.606;9.988;2022-07-29T02:00:17;99090.22;;;14.91;100.00
57114;BME280;42994;51.606;9.988;2022-07-29T02:02:45;99085.22;;;14.95;100.00
57114;BME280;42994;51.606;9.988;2022-07-29T02:05:15;99090.88;;;14.87;100.00
57114;BME280;42994;51.606;9.988;2022-07-29T02:07:44;99086.25;;;14.94;100.00
57114;BME280;42994;51.606;9.988;2022-07-29T02:10:13;99092.28;;;14.89;100.00
57114;BME280;42994;51.606;9.988;2022-07-29T02:12:42;99087.94;;;14.95;100.00
57114;BME280;42994;51.606;9.988;2022-07-29T02:15:11;99081.47;;;14.96;100.00
57114;BME280;42994;51.606;9.988;2022-07-29T02:17:42;99079.38;;;14.98;100.00
57114;BME280;42994;51.606;9.988;2022-07-29T02:20:11;99089.78;;;14.94;100.00
57114;BME280;42994;51.606;9.988;2022-07-29T02:22:39;99082.13;;;14.91;100.00
57114;BME280;42994;51.606;9.988;2022-07-29T02:25:07;99088.97;;;14.94;100.00
57114;BME280;42994;51.606;9.988;2022-07-29T02:27:35;99079.88;;;14.88;100.00
57114;BME280;42994;51.606;9.988;2022-07-29T02:30:04;99076.97;;;14.83;100.00
57114;BME280;42994;51.606;9.988;2022-07-29T02:32:34;99073.50;;;14.76;100.00
57114;BME280;42994;51.606;9.988;2022-07-29T02:35:04;99069.56;;;14.78;100.00
57114;BME280;42994;51.606;9.988;2022-07-29T02:37:32;99067.09;;;14.70;100.00
57114;BME280;42994;51.606;9.988;2022-07-29T02:40:00;99069.59;;;14.72;100.00
57114;BME280;42994;51.606;9.988;2022-07-29T02:42:28;99068.41;;;14.61;100.00
57114;BME280;42994;51.606;9.988;2022-07-29T02:44:55;99064.63;;;14.69;100.00
57114;BME280;42994;51.606;9.988;2022-07-29T02:47:26;99065.91;;;14.66;100.00
57114;BME280;42994;51.606;9.988;2022-07-29T02:49:57;99062.19;;;14.60;100.00
57114;BME280;42994;51.606;9.988;2022-07-29T02:52:32;99054.53;;;14.51;100.00
57114;BME280;42994;51.606;9.988;2022-07-29T02:55:05;99061.16;;;14.55;100.00
57114;BME280;42994;51.606;9.988;2022-07-29T02:57:40;99063.19;;;14.66;100.00
57114;BME280;42994;51.606;9.988;2022-07-29T03:00:09;99055.31;;;14.65;100.00
57114;BME280;42994;51.606;9.988;2022-07-29T03:02:39;99049.41;;;14.36;100.00
57114;BME280;42994;51.606;9.988;2022-07-29T03:05:09;99054.19;;;14.40;100.00
57114;BME280;42994;51.606;9.988;2022-07-29T03:07:40;99049.22;;;14.37;100.00
57114;BME280;42994;51.606;9.988;2022-07-29T03:10:09;99051.09;;;14.37;100.00
57114;BME280;42994;51.606;9.988;2022-07-29T03:12:36;99051.72;;;14.32;100.00
57114;BME280;42994;51.606;9.988;2022-07-29T03:15:04;99049.97;;;14.51;100.00
57114;BME280;42994;51.606;9.988;2022-07-29T03:17:32;99053.69;;;14.57;100.00
57114;BME280;42994;51.606;9.988;2022-07-29T03:20:00;99046.09;;;14.40;100.00
57114;BME280;42994;51.606;9.988;2022-07-29T03:22:27;99048.13;;;14.45;100.00
57114;BME280;42994;51.606;9.988;2022-07-29T03:24:55;99039.81;;;14.47;100.00
57114;BME280;42994;51.606;9.988;2022-07-29T03:27:22;99034.06;;;14.36;100.00
57114;BME280;42994;51.606;9.988;2022-07-29T03:29:49;99039.00;;;14.46;100.00
57114;BME280;42994;51.606;9.988;2022-07-29T03:32:15;99033.22;;;14.42;100.00
57114;BME280;42994;51.606;9.988;2022-07-29T03:34:42;99047.31;;;14.45;100.00
57114;BME280;42994;51.606;9.988;2022-07-29T03:37:09;99038.59;;;14.42;100.00
57114;BME280;42994;51.606;9.988;2022-07-29T03:39:40;99032.59;;;14.40;100.00
57114;BME280;42994;51.606;9.988;2022-07-29T03:42:10;99032.34;;;14.49;100.00
57114;BME280;42994;51.606;9.988;2022-07-29T03:44:41;99026.31;;;14.53;100.00
57114;BME280;42994;51.606;9.988;2022-07-29T03:47:09;99031.91;;;14.52;100.00
57114;BME280;42994;51.606;9.988;2022-07-29T03:49:37;99019.06;;;14.47;100.00
57114;BME280;42994;51.606;9.988;2022-07-29T03:52:07;99022.75;;;14.53;100.00
57114;BME280;42994;51.606;9.988;2022-07-29T03:54:34;99021.94;;;14.59;100.00
57114;BME280;42994;51.606;9.988;2022-07-29T03:57:02;99022.38;;;14.49;100.00
57114;BME280;42994;51.606;9.988;2022-07-29T03:59:32;99029.03;;;14.47;100.00
57114;BME280;42994;51.606;9.988;2022-07-29T04:01:59;99024.94;;;14.37;100.00
57114;BME280;42994;51.606;9.988;2022-07-29T04:04:27;99023.06;;;14.38;100.00
57114;BME280;42994;51.606;9.988;2022-07-29T04:06:54;99022.44;;;14.42;100.00
57114;BME280;42994;51.606;9.988;2022-07-29T04:09:20;99027.44;;;14.39;100.00
57114;BME280;42994;51.606;9.988;2022-07-29T04:11:47;99033.53;;;14.53;100.00
57114;BME280;42994;51.606;9.988;2022-07-29T04:14:14;99029.44;;;14.50;100.00
57114;BME280;42994;51.606;9.988;2022-07-29T04:16:42;99042.50;;;14.53;100.00
57114;BME280;42994;51.606;9.988;2022-07-29T04:19:08;99050.59;;;14.47;100.00
57114;BME280;42994;51.606;9.988;2022-07-29T04:21:37;99055.13;;;14.53;100.00
57114;BME280;42994;51.606;9.988;2022-07-29T04:24:04;99058.44;;;14.61;100.00
57114;BME280;42994;51.606;9.988;2022-07-29T04:26:30;99055.13;;;14.59;100.00
57114;BME280;42994;51.606;9.988;2022-07-29T04:28:57;99062.41;;;14.59;100.00
57114;BME280;42994;51.606;9.988;2022-07-29T04:31:24;99055.13;;;14.53;100.00
57114;BME280;42994;51.606;9.988;2022-07-29T04:33:52;99058.03;;;14.58;100.00
57114;BME280;42994;51.606;9.988;2022-07-29T04:36:19;99056.59;;;14.62;100.00
57114;BME280;42994;51.606;9.988;2022-07-29T04:38:45;99057.41;;;14.63;100.00
57114;BME280;42994;51.606;9.988;2022-07-29T04:41:12;99053.06;;;14.55;100.00
57114;BME280;42994;51.606;9.988;2022-07-29T04:43:39;99046.81;;;14.61;100.00
57114;BME280;42994;51.606;9.988;2022-07-29T04:46:06;99050.31;;;14.68;100.00
57114;BME280;42994;51.606;9.988;2022-07-29T04:48:33;99052.31;;;14.79;100.00
57114;BME280;42994;51.606;9.988;2022-07-29T04:51:01;99047.97;;;14.78;100.00
57114;BME280;42994;51.606;9.988;2022-07-29T04:53:28;99042.34;;;14.80;100.00
57114;BME280;42994;51.606;9.988;2022-07-29T04:55:54;99042.91;;;14.89;100.00
57114;BME280;42994;51.606;9.988;2022-07-29T04:58:21;99042.47;;;14.92;100.00
57114;BME280;42994;51.606;9.988;2022-07-29T05:00:49;99041.38;;;14.99;100.00
57114;BME280;42994;51.606;9.988;2022-07-29T05:03:15;99042.34;;;15.05;100.00
57114;BME280;42994;51.606;9.988;2022-07-29T05:05:42;99045.50;;;15.02;100.00
57114;BME280;42994;51.606;9.988;2022-07-29T05:08:10;99048.44;;;15.01;100.00
57114;BME280;42994;51.606;9.988;2022-07-29T05:10:37;99051.94;;;15.01;100.00
57114;BME280;42994;51.606;9.988;2022-07-29T05:13:04;99055.91;;;14.98;100.00
57114;BME280;42994;51.606;9.988;2022-07-29T05:15:32;99064.94;;;15.11;100.00
57114;BME280;42994;51.606;9.988;2022-07-29T05:17:59;99082.91;;;15.24;100.00
57114;BME280;42994;51.606;9.988;2022-07-29T05:20:25;99089.47;;;15.34;100.00
57114;BME280;42994;51.606;9.988;2022-07-29T05:22:53;99086.50;;;15.43;99.11
57114;BME280;42994;51.606;9.988;2022-07-29T05:25:22;99080.16;;;15.55;100.00
57114;BME280;42994;51.606;9.988;2022-07-29T05:27:48;99077.09;;;15.70;100.00
57114;BME280;42994;51.606;9.988;2022-07-29T05:30:15;99066.84;;;15.79;100.00
57114;BME280;42994;51.606;9.988;2022-07-29T05:32:42;99048.16;;;15.96;96.58
57114;BME280;42994;51.606;9.988;2022-07-29T05:35:09;99054.47;;;16.08;94.55
57114;BME280;42994;51.606;9.988;2022-07-29T05:37:35;99053.78;;;16.13;94.19
57114;BME280;42994;51.606;9.988;2022-07-29T05:40:02;99051.38;;;16.23;91.99
57114;BME280;42994;51.606;9.988;2022-07-29T05:42:31;99057.47;;;16.49;88.98
57114;BME280;42994;51.606;9.988;2022-07-29T05:44:57;99061.19;;;16.66;85.74
57114;BME280;42994;51.606;9.988;2022-07-29T05:47:24;99061.19;;;16.85;85.48
57114;BME280;42994;51.606;9.988;2022-07-29T05:49:51;99067.91;;;17.06;84.50
57114;BME280;42994;51.606;9.988;2022-07-29T05:52:17;99073.72;;;17.33;83.22
57114;BME280;42994;51.606;9.988;2022-07-29T05:54:44;99067.16;;;17.53;79.56
57114;BME280;42994;51.606;9.988;2022-07-29T05:57:15;99072.91;;;17.44;79.61
57114;BME280;42994;51.606;9.988;2022-07-29T05:59:43;99073.63;;;17.52;77.40
57114;BME280;42994;51.606;9.988;2022-07-29T06:02:10;99077.97;;;18.12;75.85
57114;BME280;42994;51.606;9.988;2022-07-29T06:04:37;99078.88;;;18.17;72.75
57114;BME280;42994;51.606;9.988;2022-07-29T06:07:04;99079.56;;;18.24;74.44
57114;BME280;42994;51.606;9.988;2022-07-29T06:09:31;99070.28;;;18.20;71.37
57114;BME280;42994;51.606;9.988;2022-07-29T06:11:58;99071.13;;;18.09;71.62
57114;BME280;42994;51.606;9.988;2022-07-29T06:14:25;99071.31;;;18.19;72.05
57114;BME280;42994;51.606;9.988;2022-07-29T06:16:53;99071.66;;;18.23;72.16
57114;BME280;42994;51.606;9.988;2022-07-29T06:19:20;99067.16;;;18.29;70.45
57114;BME280;42994;51.606;9.988;2022-07-29T06:21:47;99068.97;;;18.23;70.82
57114;BME280;42994;51.606;9.988;2022-07-29T06:24:15;99071.31;;;18.19;69.71
57114;BME280;42994;51.606;9.988;2022-07-29T06:26:42;99069.34;;;18.15;69.49
57114;BME280;42994;51.606;9.988;2022-07-29T06:29:10;99071.13;;;18.09;69.37
57114;BME280;42994;51.606;9.988;2022-07-29T06:31:37;99073.47;;;18.17;68.57
57114;BME280;42994;51.606;9.988;2022-07-29T06:34:05;99070.06;;;18.10;68.89
57114;BME280;42994;51.606;9.988;2022-07-29T06:36:34;99070.41;;;18.14;68.20
57114;BME280;42994;51.606;9.988;2022-07-29T06:39:01;99068.38;;;18.21;67.93
57114;BME280;42994;51.606;9.988;2022-07-29T06:41:27;99067.44;;;18.15;67.29
57114;BME280;42994;51.606;9.988;2022-07-29T06:43:55;99060.59;;;18.24;66.87
57114;BME280;42994;51.606;9.988;2022-07-29T06:46:22;99064.09;;;18.25;66.47
57114;BME280;42994;51.606;9.988;2022-07-29T06:48:49;99068.84;;;18.30;66.67
57114;BME280;42994;51.606;9.988;2022-07-29T06:51:17;99062.31;;;18.31;66.48
57114;BME280;42994;51.606;9.988;2022-07-29T06:53:44;99063.13;;;18.43;65.94
57114;BME280;42994;51.606;9.988;2022-07-29T06:56:11;99066.06;;;18.41;65.90
57114;BME280;42994;51.606;9.988;2022-07-29T06:58:39;99071.94;;;18.50;66.22
57114;BME280;42994;51.606;9.988;2022-07-29T07:01:06;99070.66;;;18.53;67.30
57114;BME280;42994;51.606;9.988;2022-07-29T07:03:33;99069.69;;;18.47;67.23
57114;BME280;42994;51.606;9.988;2022-07-29T07:06:00;99070.78;;;18.46;67.17
57114;BME280;42994;51.606;9.988;2022-07-29T07:08:28;99075.56;;;18.56;67.73
57114;BME280;42994;51.606;9.988;2022-07-29T07:10:55;99077.00;;;18.58;67.54
57114;BME280;42994;51.606;9.988;2022-07-29T07:13:22;99080.28;;;18.60;67.39
57114;BME280;42994;51.606;9.988;2022-07-29T07:15:49;99086.19;;;18.57;67.11
57114;BME280;42994;51.606;9.988;2022-07-29T07:18:16;99074.97;;;18.66;68.11
57114;BME280;42994;51.606;9.988;2022-07-29T07:20:44;99078.09;;;18.74;69.17
57114;BME280;42994;51.606;9.988;2022-07-29T07:23:11;99082.94;;;18.72;67.77
57114;BME280;42994;51.606;9.988;2022-07-29T07:25:39;99085.72;;;18.60;70.53
57114;BME280;42994;51.606;9.988;2022-07-29T07:28:05;99085.75;;;18.77;68.44
57114;BME280;42994;51.606;9.988;2022-07-29T07:30:32;99072.06;;;18.72;69.72
57114;BME280;42994;51.606;9.988;2022-07-29T07:32:59;99082.50;;;18.92;68.60
57114;BME280;42994;51.606;9.988;2022-07-29T07:35:26;99076.06;;;18.81;68.14
57114;BME280;42994;51.606;9.988;2022-07-29T07:37:53;99082.63;;;18.97;66.73
57114;BME280;42994;51.606;9.988;2022-07-29T07:40:19;99079.50;;;19.06;65.98
57114;BME280;42994;51.606;9.988;2022-07-29T07:42:47;99088.38;;;19.18;66.10
57114;BME280;42994;51.606;9.988;2022-07-29T07:45:14;99086.75;;;19.85;62.56
57114;BME280;42994;51.606;9.988;2022-07-29T07:47:41;99087.69;;;19.95;61.30
57114;BME280;42994;51.606;9.988;2022-07-29T07:50:09;99089.16;;;20.03;60.94
57114;BME280;42994;51.606;9.988;2022-07-29T07:52:46;99090.38;;;20.12;59.75
57114;BME280;42994;51.606;9.988;2022-07-29T07:55:12;99081.88;;;20.09;58.96
57114;BME280;42994;51.606;9.988;2022-07-29T07:57:39;99081.81;;;20.04;58.79
57114;BME280;42994;51.606;9.988;2022-07-29T08:00:08;99081.00;;;20.03;58.66
57114;BME280;42994;51.606;9.988;2022-07-29T08:02:38;99076.25;;;20.15;59.02
57114;BME280;42994;51.606;9.988;2022-07-29T08:05:06;99079.47;;;20.12;60.46
57114;BME280;42994;51.606;9.988;2022-07-29T08:07:33;99083.78;;;20.30;59.71
57114;BME280;42994;51.606;9.988;2022-07-29T08:10:00;99078.22;;;20.20;59.53
57114;BME280;42994;51.606;9.988;2022-07-29T08:12:26;99066.44;;;20.14;59.17
57114;BME280;42994;51.606;9.988;2022-07-29T08:14:53;99069.22;;;20.20;58.34
57114;BME280;42994;51.606;9.988;2022-07-29T08:17:21;99074.44;;;20.21;59.22
57114;BME280;42994;51.606;9.988;2022-07-29T08:19:48;99079.63;;;20.23;57.78
57114;BME280;42994;51.606;9.988;2022-07-29T08:22:15;99082.13;;;20.29;59.02
57114;BME280;42994;51.606;9.988;2022-07-29T08:24:42;99093.41;;;20.38;58.10
57114;BME280;42994;51.606;9.988;2022-07-29T08:27:18;99090.25;;;20.46;58.36
57114;BME280;42994;51.606;9.988;2022-07-29T08:29:46;99091.38;;;20.50;56.98
57114;BME280;42994;51.606;9.988;2022-07-29T08:32:13;99091.56;;;20.22;58.42
57114;BME280;42994;51.606;9.988;2022-07-29T08:34:41;99091.66;;;20.27;61.24
57114;BME280;42994;51.606;9.988;2022-07-29T08:37:09;99087.50;;;20.24;57.18
57114;BME280;42994;51.606;9.988;2022-07-29T08:39:36;99091.44;;;20.55;56.32
57114;BME280;42994;51.606;9.988;2022-07-29T08:42:03;99091.31;;;20.45;56.10
57114;BME280;42994;51.606;9.988;2022-07-29T08:44:31;99089.94;;;20.43;57.23
57114;BME280;42994;51.606;9.988;2022-07-29T08:46:58;99089.22;;;20.74;57.65
57114;BME280;42994;51.606;9.988;2022-07-29T08:49:25;99100.53;;;20.88;57.36
57114;BME280;42994;51.606;9.988;2022-07-29T08:51:53;99095.53;;;20.80;57.99
57114;BME280;42994;51.606;9.988;2022-07-29T08:54:23;99079.91;;;20.48;60.08
57114;BME280;42994;51.606;9.988;2022-07-29T08:56:50;99081.78;;;20.65;59.87
57114;BME280;42994;51.606;9.988;2022-07-29T08:59:19;99076.31;;;20.65;55.41
57114;BME280;42994;51.606;9.988;2022-07-29T09:01:47;99079.34;;;20.68;59.42
57114;BME280;42994;51.606;9.988;2022-07-29T09:04:15;99081.66;;;21.09;56.79
57114;BME280;42994;51.606;9.988;2022-07-29T09:06:45;99085.56;;;21.50;55.70
57114;BME280;42994;51.606;9.988;2022-07-29T09:09:14;99084.34;;;21.74;54.19
57114;BME280;42994;51.606;9.988;2022-07-29T09:11:42;99079.00;;;21.89;51.65
57114;BME280;42994;51.606;9.988;2022-07-29T09:14:11;99067.31;;;21.56;52.18
57114;BME280;42994;51.606;9.988;2022-07-29T09:16:52;99066.47;;;21.56;50.64
57114;BME280;42994;51.606;9.988;2022-07-29T09:19:27;99072.09;;;21.76;51.39
57114;BME280;42994;51.606;9.988;2022-07-29T09:21:55;99061.91;;;21.61;50.41
57114;BME280;42994;51.606;9.988;2022-07-29T09:24:27;99055.72;;;21.76;50.31
57114;BME280;42994;51.606;9.988;2022-07-29T09:26:54;99056.72;;;21.60;50.98
57114;BME280;42994;51.606;9.988;2022-07-29T09:29:22;99048.34;;;21.34;51.54
57114;BME280;42994;51.606;9.988;2022-07-29T09:31:50;99055.59;;;21.23;52.00
57114;BME280;42994;51.606;9.988;2022-07-29T09:34:21;99052.84;;;21.18;52.17
57114;BME280;42994;51.606;9.988;2022-07-29T09:36:50;99048.50;;;21.55;52.44
57114;BME280;42994;51.606;9.988;2022-07-29T09:39:29;99044.53;;;21.40;52.40
57114;BME280;42994;51.606;9.988;2022-07-29T09:42:00;99051.88;;;21.35;53.30
57114;BME280;42994;51.606;9.988;2022-07-29T09:44:40;99051.56;;;21.31;52.79
57114;BME280;42994;51.606;9.988;2022-07-29T09:47:07;99062.22;;;21.33;53.36
57114;BME280;42994;51.606;9.988;2022-07-29T09:49:35;99054.69;;;21.12;53.30
57114;BME280;42994;51.606;9.988;2022-07-29T09:52:07;99055.47;;;21.08;54.76
57114;BME280;42994;51.606;9.988;2022-07-29T09:54:36;99056.81;;;21.05;54.61
57114;BME280;42994;51.606;9.988;2022-07-29T09:57:04;99056.56;;;21.07;57.04
57114;BME280;42994;51.606;9.988;2022-07-29T09:59:31;99064.25;;;21.15;55.61
57114;BME280;42994;51.606;9.988;2022-07-29T10:01:58;99054.47;;;20.87;55.42
57114;BME280;42994;51.606;9.988;2022-07-29T10:04:37;99050.88;;;20.81;58.38
57114;BME280;42994;51.606;9.988;2022-07-29T10:07:04;99052.88;;;20.91;57.30
57114;BME280;42994;51.606;9.988;2022-07-29T10:09:31;99042.97;;;20.80;59.26
57114;BME280;42994;51.606;9.988;2022-07-29T10:12:08;99047.31;;;20.81;62.45
57114;BME280;42994;51.606;9.988;2022-07-29T10:14:36;99038.81;;;20.72;61.94
57114;BME280;42994;51.606;9.988;2022-07-29T10:17:05;99040.97;;;20.70;62.94
57114;BME280;42994;51.606;9.988;2022-07-29T10:19:34;99043.78;;;20.80;63.81
57114;BME280;42994;51.606;9.988;2022-07-29T10:22:02;99034.44;;;20.71;63.24
57114;BME280;42994;51.606;9.988;2022-07-29T10:24:31;99027.00;;;20.61;62.49
57114;BME280;42994;51.606;9.988;2022-07-29T10:26:59;99030.59;;;20.67;64.65
57114;BME280;42994;51.606;9.988;2022-07-29T10:29:29;99032.75;;;20.65;65.93
57114;BME280;42994;51.606;9.988;2022-07-29T10:32:17;99031.75;;;20.76;65.15
57114;BME280;42994;51.606;9.988;2022-07-29T10:35:06;99022.41;;;20.67;63.46
57114;BME280;42994;51.606;9.988;2022-07-29T10:37:46;99031.16;;;20.69;65.77
57114;BME280;42994;51.606;9.988;2022-07-29T10:40:28;99026.88;;;20.78;62.82
57114;BME280;42994;51.606;9.988;2022-07-29T10:43:21;99031.38;;;20.95;64.31
57114;BME280;42994;51.606;9.988;2022-07-29T10:45:56;99033.03;;;20.96;61.82
57114;BME280;42994;51.606;9.988;2022-07-29T10:48:23;99024.81;;;20.90;63.70
57114;BME280;42994;51.606;9.988;2022-07-29T10:50:54;99032.09;;;21.17;61.49
57114;BME280;42994;51.606;9.988;2022-07-29T10:53:21;99025.28;;;21.15;60.31
57114;BME280;42994;51.606;9.988;2022-07-29T10:55:50;99024.91;;;21.38;62.19
57114;BME280;42994;51.606;9.988;2022-07-29T10:58:19;99024.72;;;21.50;61.16
57114;BME280;42994;51.606;9.988;2022-07-29T11:00:47;99024.16;;;21.48;61.17
57114;BME280;42994;51.606;9.988;2022-07-29T11:03:47;99024.38;;;21.41;65.12
57114;BME280;42994;51.606;9.988;2022-07-29T11:06:15;99028.50;;;21.92;57.33
57114;BME280;42994;51.606;9.988;2022-07-29T11:08:42;99026.16;;;22.11;54.91
57114;BME280;42994;51.606;9.988;2022-07-29T11:11:32;99035.56;;;22.45;54.50
57114;BME280;42994;51.606;9.988;2022-07-29T11:14:01;99031.78;;;22.72;51.83
57114;BME280;42994;51.606;9.988;2022-07-29T11:17:04;99028.75;;;22.48;49.78
57114;BME280;42994;51.606;9.988;2022-07-29T11:19:33;99030.16;;;22.71;49.00
57114;BME280;42994;51.606;9.988;2022-07-29T11:22:01;99029.63;;;22.84;49.20
57114;BME280;42994;51.606;9.988;2022-07-29T11:24:30;99037.56;;;23.37;47.62
57114;BME280;42994;51.606;9.988;2022-07-29T11:27:08;99029.91;;;23.34;46.82
57114;BME280;42994;51.606;9.988;2022-07-29T11:29:38;99035.09;;;23.31;45.03
57114;BME280;42994;51.606;9.988;2022-07-29T11:32:11;99032.06;;;23.58;44.72
57114;BME280;42994;51.606;9.988;2022-07-29T11:34:39;99026.91;;;23.46;43.93
57114;BME280;42994;51.606;9.988;2022-07-29T11:37:20;99027.38;;;23.79;43.34
57114;BME280;42994;51.606;9.988;2022-07-29T11:42:50;99026.75;;;24.08;41.93
57114;BME280;42994;51.606;9.988;2022-07-29T11:45:25;99022.84;;;24.24;44.05
57114;BME280;42994;51.606;9.988;2022-07-29T11:47:59;99019.53;;;24.22;45.44
57114;BME280;42994;51.606;9.988;2022-07-29T11:50:31;99016.53;;;24.24;46.31
57114;BME280;42994;51.606;9.988;2022-07-29T11:52:59;99015.09;;;24.36;44.20
57114;BME280;42994;51.606;9.988;2022-07-29T11:55:27;99010.16;;;24.38;44.46
57114;BME280;42994;51.606;9.988;2022-07-29T11:57:54;99012.97;;;24.73;46.42
57114;BME280;42994;51.606;9.988;2022-07-29T12:00:24;99000.28;;;24.43;47.50
57114;BME280;42994;51.606;9.988;2022-07-29T12:02:51;99001.06;;;24.48;44.47
57114;BME280;42994;51.606;9.988;2022-07-29T12:05:19;99001.69;;;24.80;44.64
57114;BME280;42994;51.606;9.988;2022-07-29T12:07:47;99001.69;;;25.14;44.38
57114;BME280;42994;51.606;9.988;2022-07-29T12:10:15;98999.50;;;25.11;44.53
57114;BME280;42994;51.606;9.988;2022-07-29T12:12:42;98993.34;;;24.95;42.65
57114;BME280;42994;51.606;9.988;2022-07-29T12:15:14;98999.94;;;25.28;41.38
57114;BME280;42994;51.606;9.988;2022-07-29T12:17:41;98987.09;;;25.19;42.49
57114;BME280;42994;51.606;9.988;2022-07-29T12:20:08;98998.50;;;25.36;43.13
57114;BME280;42994;51.606;9.988;2022-07-29T12:22:38;98984.84;;;24.97;42.77
57114;BME280;42994;51.606;9.988;2022-07-29T12:25:08;98993.66;;;25.23;43.61
57114;BME280;42994;51.606;9.988;2022-07-29T12:27:35;98980.72;;;24.99;43.90
57114;BME280;42994;51.606;9.988;2022-07-29T12:30:05;98978.69;;;25.10;43.28
57114;BME280;42994;51.606;9.988;2022-07-29T12:32:34;98989.38;;;25.94;41.08
57114;BME280;42994;51.606;9.988;2022-07-29T12:35:05;98976.97;;;25.73;41.13
57114;BME280;42994;51.606;9.988;2022-07-29T12:37:33;98969.97;;;25.61;40.79
57114;BME280;42994;51.606;9.988;2022-07-29T12:40:05;98983.16;;;25.83;40.48
57114;BME280;42994;51.606;9.988;2022-07-29T12:42:33;98975.44;;;25.85;41.09
57114;BME280;42994;51.606;9.988;2022-07-29T12:45:00;98967.56;;;25.79;41.18
57114;BME280;42994;51.606;9.988;2022-07-29T12:47:28;98978.69;;;25.68;41.43
57114;BME280;42994;51.606;9.988;2022-07-29T12:50:08;98964.41;;;25.90;40.81
57114;BME280;42994;51.606;9.988;2022-07-29T12:52:35;98963.19;;;26.02;41.43
57114;BME280;42994;51.606;9.988;2022-07-29T12:55:04;98951.69;;;26.38;39.45
57114;BME280;42994;51.606;9.988;2022-07-29T12:57:32;98957.88;;;26.68;39.65
57114;BME280;42994;51.606;9.988;2022-07-29T13:00:00;98945.88;;;26.77;39.52
57114;BME280;42994;51.606;9.988;2022-07-29T13:02:28;98935.88;;;26.68;38.27
57114;BME280;42994;51.606;9.988;2022-07-29T13:04:55;98945.41;;;26.89;37.67
57114;BME280;42994;51.606;9.988;2022-07-29T13:07:24;98941.22;;;26.78;37.31
57114;BME280;42994;51.606;9.988;2022-07-29T13:09:52;98955.88;;;27.20;36.86